sensor_id;sensor_type;location;lat;lon;timestamp;pressure;altitude;pressure_sealevel;temperature;humidity
74913;BME280;63878;55.624;37.304;2023-09-18T00:03:15;99554.56;;;11.41;64.29
74913;BME280;63878;55.624;37.304;2023-09-18T00:13:16;99552.25;;;11.36;64.91
74913;BME280;63878;55.624;37.304;2023-09-18T00:23:17;99553.31;;;11.33;64.72
74913;BME280;63878;55.624;37.304;2023-09-18T00:33:17;99545.81;;;11.40;64.86
74913;BME280;63878;55.624;37.304;2023-09-18T00:43:18;99544.59;;;11.33;64.72
74913;BME280;63878;55.624;37.304;2023-09-18T00:53:22;99541.63;;;11.38;63.95
74913;BME280;63878;55.624;37.304;2023-09-18T01:03:23;99545.75;;;11.29;64.04
74913;BME280;63878;55.624;37.304;2023-09-18T01:13:30;99530.72;;;11.31;64.64
74913;BME280;63878;55.624;37.304;2023-09-18T01:23:34;99524.59;;;11.30;64.90
74913;BME280;63878;55.624;37.304;2023-09-18T01:33:35;99524.66;;;11.42;64.39
74913;BME280;63878;55.624;37.304;2023-09-18T01:43:37;99505.41;;;11.41;64.84
74913;BME280;63878;55.624;37.304;2023-09-18T01:53:37;99506.50;;;11.39;64.87
74913;BME280;63878;55.624;37.304;2023-09-18T02:03:38;99502.19;;;11.38;64.49
74913;BME280;63878;55.624;37.304;2023-09-18T02:13:38;99477.88;;;11.34;65.22
74913;BME280;63878;55.624;37.304;2023-09-18T02:23:39;99468.97;;;11.48;64.11
74913;BME280;63878;55.624;37.304;2023-09-18T02:33:40;99469.66;;;11.39;64.52
74913;BME280;63878;55.624;37.304;2023-09-18T02:43:41;99472.34;;;11.26;65.61
74913;BME280;63878;55.624;37.304;2023-09-18T02:53:41;99467.63;;;11.18;65.84
74913;BME280;63878;55.624;37.304;2023-09-18T03:03:42;99457.00;;;11.20;65.60
74913;BME280;63878;55.624;37.304;2023-09-18T03:13:46;99458.91;;;11.18;66.62
74913;BME280;63878;55.624;37.304;2023-09-18T03:23:46;99453.31;;;11.22;66.47
74913;BME280;63878;55.624;37.304;2023-09-18T03:33:47;99465.94;;;11.41;66.32
74913;BME280;63878;55.624;37.304;2023-09-18T03:43:47;99466.66;;;11.43;66.03
74913;BME280;63878;55.624;37.304;2023-09-18T03:53:48;99461.66;;;11.40;66.81
74913;BME280;63878;55.624;37.304;2023-09-18T04:03:49;99465.00;;;11.42;66.69
74913;BME280;63878;55.624;37.304;2023-09-18T04:13:49;99467.28;;;11.47;67.80
74913;BME280;63878;55.624;37.304;2023-09-18T04:23:49;99459.91;;;11.63;67.12
74913;BME280;63878;55.624;37.304;2023-09-18T04:33:50;99455.41;;;11.65;66.67
74913;BME280;63878;55.624;37.304;2023-09-18T04:43:51;99454.19;;;11.58;67.22
74913;BME280;63878;55.624;37.304;2023-09-18T04:53:51;99449.06;;;11.68;67.47
74913;BME280;63878;55.624;37.304;2023-09-18T05:03:52;99444.28;;;11.84;67.48
74913;BME280;63878;55.624;37.304;2023-09-18T05:13:53;99440.22;;;11.80;67.29
74913;BME280;63878;55.624;37.304;2023-09-18T05:23:53;99466.34;;;11.48;69.33
74913;BME280;63878;55.624;37.304;2023-09-18T05:33:53;99462.16;;;11.45;69.55
74913;BME280;63878;55.624;37.304;2023-09-18T05:43:56;99463.69;;;11.83;69.16
74913;BME280;63878;55.624;37.304;2023-09-18T05:53:57;99470.88;;;12.03;68.68
74913;BME280;63878;55.624;37.304;2023-09-18T06:03:57;99459.91;;;12.21;68.45
74913;BME280;63878;55.624;37.304;2023-09-18T06:13:58;99457.91;;;12.58;67.93
74913;BME280;63878;55.624;37.304;2023-09-18T06:23:59;99462.31;;;12.68;66.87
74913;BME280;63878;55.624;37.304;2023-09-18T06:33:59;99455.00;;;12.72;67.67
74913;BME280;63878;55.624;37.304;2023-09-18T06:44:01;99466.69;;;12.90;67.08
74913;BME280;63878;55.624;37.304;2023-09-18T06:54:02;99475.06;;;13.07;66.13
74913;BME280;63878;55.624;37.304;2023-09-18T07:04:03;99484.66;;;13.08;66.31
74913;BME280;63878;55.624;37.304;2023-09-18T07:14:03;99484.38;;;13.11;66.60
74913;BME280;63878;55.624;37.304;2023-09-18T07:24:05;99492.78;;;13.16;66.43
74913;BME280;63878;55.624;37.304;2023-09-18T07:34:06;99492.63;;;13.29;65.03
74913;BME280;63878;55.624;37.304;2023-09-18T07:44:06;99501.41;;;13.18;66.75
74913;BME280;63878;55.624;37.304;2023-09-18T07:54:07;99498.25;;;13.24;65.60
74913;BME280;63878;55.624;37.304;2023-09-18T08:04:08;99511.19;;;13.38;65.89
74913;BME280;63878;55.624;37.304;2023-09-18T08:14:11;99510.38;;;13.70;64.76
74913;BME280;63878;55.624;37.304;2023-09-18T08:24:12;99509.34;;;13.50;64.62
74913;BME280;63878;55.624;37.304;2023-09-18T08:34:12;99497.06;;;13.60;65.16
74913;BME280;63878;55.624;37.304;2023-09-18T08:44:13;99505.63;;;14.05;63.57
74913;BME280;63878;55.624;37.304;2023-09-18T08:54:15;99512.78;;;13.94;64.10
74913;BME280;63878;55.624;37.304;2023-09-18T09:04:16;99512.19;;;13.90;64.60
74913;BME280;63878;55.624;37.304;2023-09-18T09:14:17;99511.13;;;14.23;63.93
74913;BME280;63878;55.624;37.304;2023-09-18T09:24:17;99520.28;;;14.40;63.69
74913;BME280;63878;55.624;37.304;2023-09-18T09:34:25;99513.53;;;14.26;64.93
74913;BME280;63878;55.624;37.304;2023-09-18T09:44:26;99516.84;;;14.49;63.18
74913;BME280;63878;55.624;37.304;2023-09-18T09:54:33;99517.91;;;14.68;63.65
74913;BME280;63878;55.624;37.304;2023-09-18T10:04:35;99519.16;;;14.43;63.76
74913;BME280;63878;55.624;37.304;2023-09-18T10:14:37;99523.69;;;14.52;64.03
74913;BME280;63878;55.624;37.304;2023-09-18T10:24:40;99506.41;;;14.48;65.50
74913;BME280;63878;55.624;37.304;2023-09-18T10:34:41;99503.94;;;14.56;65.37
74913;BME280;63878;55.624;37.304;2023-09-18T10:44:44;99496.28;;;14.53;64.97
74913;BME280;63878;55.624;37.304;2023-09-18T10:54:45;99501.97;;;14.79;65.16
74913;BME280;63878;55.624;37.304;2023-09-18T11:04:45;99492.44;;;15.07;63.41
74913;BME280;63878;55.624;37.304;2023-09-18T11:14:49;99497.47;;;15.29;62.75
74913;BME280;63878;55.624;37.304;2023-09-18T11:25:28;99497.56;;;15.18;63.31
74913;BME280;63878;55.624;37.304;2023-09-18T11:35:31;99499.84;;;15.52;62.74
74913;BME280;63878;55.624;37.304;2023-09-18T11:45:33;99490.22;;;15.99;60.52
74913;BME280;63878;55.624;37.304;2023-09-18T11:55:33;99499.56;;;16.13;60.41
74913;BME280;63878;55.624;37.304;2023-09-18T12:05:34;99509.38;;;15.74;61.41
74913;BME280;63878;55.624;37.304;2023-09-18T12:15:35;99526.19;;;15.43;63.27
74913;BME280;63878;55.624;37.304;2023-09-18T12:25:35;99513.63;;;15.36;62.49
74913;BME280;63878;55.624;37.304;2023-09-18T12:35:36;99526.88;;;15.26;63.44
74913;BME280;63878;55.624;37.304;2023-09-18T12:45:36;99517.84;;;14.79;64.67
74913;BME280;63878;55.624;37.304;2023-09-18T12:55:38;99521.38;;;15.08;63.70
74913;BME280;63878;55.624;37.304;2023-09-18T13:05:39;99526.00;;;15.16;63.03
74913;BME280;63878;55.624;37.304;2023-09-18T13:15:39;99520.94;;;15.03;63.77
74913;BME280;63878;55.624;37.304;2023-09-18T13:25:40;99518.13;;;14.85;63.54
74913;BME280;63878;55.624;37.304;2023-09-18T13:35:43;99511.44;;;14.91;64.72
74913;BME280;63878;55.624;37.304;2023-09-18T13:45:44;99512.53;;;14.79;64.49
74913;BME280;63878;55.624;37.304;2023-09-18T13:55:45;99508.09;;;14.79;64.59
74913;BME280;63878;55.624;37.304;2023-09-18T14:05:45;99501.81;;;14.80;65.00
74913;BME280;63878;55.624;37.304;2023-09-18T14:15:46;99505.19;;;14.61;65.66
74913;BME280;63878;55.624;37.304;2023-09-18T14:25:46;99500.06;;;14.60;66.18
74913;BME280;63878;55.624;37.304;2023-09-18T14:35:47;99489.31;;;14.52;66.20
74913;BME280;63878;55.624;37.304;2023-09-18T14:45:47;99503.34;;;14.83;66.13
74913;BME280;63878;55.624;37.304;2023-09-18T14:55:48;99508.34;;;14.76;66.33
74913;BME280;63878;55.624;37.304;2023-09-18T15:05:48;99500.16;;;14.79;66.71
74913;BME280;63878;55.624;37.304;2023-09-18T15:15:49;99498.81;;;14.33;67.91
74913;BME280;63878;55.624;37.304;2023-09-18T15:25:50;99518.94;;;14.04;69.17
74913;BME280;63878;55.624;37.304;2023-09-18T15:35:51;99523.72;;;13.89;69.19
74913;BME280;63878;55.624;37.304;2023-09-18T15:45:52;99507.59;;;13.71;70.06
74913;BME280;63878;55.624;37.304;2023-09-18T15:55:52;99508.97;;;13.66;69.84
74913;BME280;63878;55.624;37.304;2023-09-18T16:05:53;99518.66;;;13.33;70.64
74913;BME280;63878;55.624;37.304;2023-09-18T16:15:53;99520.66;;;13.41;70.81
74913;BME280;63878;55.624;37.304;2023-09-18T16:25:54;99522.81;;;13.36;70.25
74913;BME280;63878;55.624;37.304;2023-09-18T16:35:55;99522.53;;;13.07;70.98
74913;BME280;63878;55.624;37.304;2023-09-18T16:45:55;99514.66;;;12.95;71.19
74913;BME280;63878;55.624;37.304;2023-09-18T16:55:56;99505.13;;;13.26;69.81
74913;BME280;63878;55.624;37.304;2023-09-18T17:05:57;99505.78;;;13.40;68.85
74913;BME280;63878;55.624;37.304;2023-09-18T17:15:58;99518.16;;;13.28;69.46
74913;BME280;63878;55.624;37.304;2023-09-18T17:25:58;99523.97;;;13.11;69.95
74913;BME280;63878;55.624;37.304;2023-09-18T17:35:59;99524.13;;;12.87;71.69
74913;BME280;63878;55.624;37.304;2023-09-18T17:46:00;99532.88;;;12.87;71.32
74913;BME280;63878;55.624;37.304;2023-09-18T17:56:00;99527.59;;;12.76;70.43
74913;BME280;63878;55.624;37.304;2023-09-18T18:06:01;99532.88;;;12.54;71.37
74913;BME280;63878;55.624;37.304;2023-09-18T18:16:02;99542.34;;;12.67;70.65
74913;BME280;63878;55.624;37.304;2023-09-18T18:26:02;99528.69;;;12.74;68.89
74913;BME280;63878;55.624;37.304;2023-09-18T18:36:08;99531.69;;;12.69;70.01
74913;BME280;63878;55.624;37.304;2023-09-18T18:46:08;99528.81;;;12.61;70.51
74913;BME280;63878;55.624;37.304;2023-09-18T18:56:09;99514.78;;;12.38;71.23
74913;BME280;63878;55.624;37.304;2023-09-18T19:06:09;99517.88;;;12.32;72.17
74913;BME280;63878;55.624;37.304;2023-09-18T19:16:11;99517.72;;;12.22;71.74
74913;BME280;63878;55.624;37.304;2023-09-18T19:26:11;99520.59;;;12.30;69.90
74913;BME280;63878;55.624;37.304;2023-09-18T19:36:12;99511.06;;;12.40;70.79
74913;BME280;63878;55.624;37.304;2023-09-18T19:46:12;99515.84;;;12.35;70.56
74913;BME280;63878;55.624;37.304;2023-09-18T19:56:13;99507.66;;;12.05;70.11
74913;BME280;63878;55.624;37.304;2023-09-18T20:06:13;99524.22;;;12.18;71.05
74913;BME280;63878;55.624;37.304;2023-09-18T20:16:14;99524.75;;;12.10;70.11
74913;BME280;63878;55.624;37.304;2023-09-18T20:26:14;99515.94;;;12.11;70.78
74913;BME280;63878;55.624;37.304;2023-09-18T20:36:15;99523.81;;;12.00;71.02
74913;BME280;63878;55.624;37.304;2023-09-18T20:46:16;99521.28;;;11.99;71.33
74913;BME280;63878;55.624;37.304;2023-09-18T20:56:16;99511.31;;;11.80;72.22
74913;BME280;63878;55.624;37.304;2023-09-18T21:06:18;99511.34;;;11.91;72.33
74913;BME280;63878;55.624;37.304;2023-09-18T21:16:18;99506.16;;;11.89;72.17
74913;BME280;63878;55.624;37.304;2023-09-18T21:26:19;99513.59;;;11.84;72.56
74913;BME280;63878;55.624;37.304;2023-09-18T21:36:21;99509.88;;;11.87;72.10
74913;BME280;63878;55.624;37.304;2023-09-18T21:46:22;99494.97;;;11.63;72.13
74913;BME280;63878;55.624;37.304;2023-09-18T21:56:22;99505.22;;;11.55;72.36
74913;BME280;63878;55.624;37.304;2023-09-18T22:06:23;99519.91;;;11.82;72.53
74913;BME280;63878;55.624;37.304;2023-09-18T22:16:23;99523.13;;;11.74;71.60
74913;BME280;63878;55.624;37.304;2023-09-18T22:26:23;99507.91;;;11.67;72.44
74913;BME280;63878;55.624;37.304;2023-09-18T22:36:24;99520.63;;;11.73;71.96
74913;BME280;63878;55.624;37.304;2023-09-18T22:57:03;99511.63;;;11.40;73.21
74913;BME280;63878;55.624;37.304;2023-09-18T23:07:03;99492.78;;;11.57;72.60
74913;BME280;63878;55.624;37.304;2023-09-18T23:17:09;99510.75;;;11.63;72.40
74913;BME280;63878;55.624;37.304;2023-09-18T23:27:09;99499.31;;;11.41;73.75
74913;BME280;63878;55.624;37.304;2023-09-18T23:37:09;99500.78;;;11.45;73.56
74913;BME280;63878;55.624;37.304;2023-09-18T23:47:10;99503.09;;;11.36;73.16
74913;BME280;63878;55.624;37.304;2023-09-18T23:57:11;99497.91;;;11.24;74.28
